sensor_id;sensor_type;location;lat;lon;timestamp;temperature;humidity
6824;DHT22;58633;49.470;11.004;2024-03-08T00:01:30;5.60;57.10
6824;DHT22;58633;49.470;11.004;2024-03-08T00:03:56;5.50;56.90
6824;DHT22;58633;49.470;11.004;2024-03-08T00:06:21;5.50;57.80
6824;DHT22;58633;49.470;11.004;2024-03-08T00:08:50;5.50;58.00
6824;DHT22;58633;49.470;11.004;2024-03-08T00:11:16;5.60;57.00
6824;DHT22;58633;49.470;11.004;2024-03-08T00:13:41;5.50;57.00
6824;DHT22;58633;49.470;11.004;2024-03-08T00:16:07;7.00;58.20
6824;DHT22;58633;49.470;11.004;2024-03-08T00:18:34;5.30;56.90
6824;DHT22;58633;49.470;11.004;2024-03-08T00:21:00;5.40;56.70
6824;DHT22;58633;49.470;11.004;2024-03-08T00:23:26;6.00;58.40
6824;DHT22;58633;49.470;11.004;2024-03-08T00:25:51;5.30;57.20
6824;DHT22;58633;49.470;11.004;2024-03-08T00:28:17;5.40;57.50
6824;DHT22;58633;49.470;11.004;2024-03-08T00:30:44;5.40;57.40
6824;DHT22;58633;49.470;11.004;2024-03-08T00:33:10;5.40;57.30
6824;DHT22;58633;49.470;11.004;2024-03-08T00:35:36;5.20;57.30
6824;DHT22;58633;49.470;11.004;2024-03-08T00:38:01;5.00;57.50
6824;DHT22;58633;49.470;11.004;2024-03-08T00:40:27;6.90;59.50
6824;DHT22;58633;49.470;11.004;2024-03-08T00:42:54;5.00;58.30
6824;DHT22;58633;49.470;11.004;2024-03-08T00:45:19;5.10;58.10
6824;DHT22;58633;49.470;11.004;2024-03-08T00:47:45;7.40;59.90
6824;DHT22;58633;49.470;11.004;2024-03-08T00:50:11;4.70;57.80
6824;DHT22;58633;49.470;11.004;2024-03-08T00:52:37;5.20;58.30
6824;DHT22;58633;49.470;11.004;2024-03-08T00:55:03;5.10;58.10
6824;DHT22;58633;49.470;11.004;2024-03-08T00:57:28;5.00;58.00
6824;DHT22;58633;49.470;11.004;2024-03-08T00:59:55;5.10;58.20
6824;DHT22;58633;49.470;11.004;2024-03-08T01:02:21;4.90;58.10
6824;DHT22;58633;49.470;11.004;2024-03-08T01:04:48;5.10;58.20
6824;DHT22;58633;49.470;11.004;2024-03-08T01:07:14;5.10;58.30
6824;DHT22;58633;49.470;11.004;2024-03-08T01:09:40;7.60;60.90
6824;DHT22;58633;49.470;11.004;2024-03-08T01:12:05;7.00;60.00
6824;DHT22;58633;49.470;11.004;2024-03-08T01:14:32;5.00;58.40
6824;DHT22;58633;49.470;11.004;2024-03-08T01:16:58;7.30;61.10
6824;DHT22;58633;49.470;11.004;2024-03-08T01:19:24;2.40;56.80
6824;DHT22;58633;49.470;11.004;2024-03-08T01:21:50;6.30;60.00
6824;DHT22;58633;49.470;11.004;2024-03-08T01:24:15;4.60;58.80
6824;DHT22;58633;49.470;11.004;2024-03-08T01:26:41;5.90;60.30
6824;DHT22;58633;49.470;11.004;2024-03-08T01:29:06;4.40;58.50
6824;DHT22;58633;49.470;11.004;2024-03-08T01:31:33;4.60;58.70
6824;DHT22;58633;49.470;11.004;2024-03-08T01:33:59;6.80;60.70
6824;DHT22;58633;49.470;11.004;2024-03-08T01:36:27;4.50;59.70
6824;DHT22;58633;49.470;11.004;2024-03-08T01:38:53;6.20;60.70
6824;DHT22;58633;49.470;11.004;2024-03-08T01:41:19;5.20;59.70
6824;DHT22;58633;49.470;11.004;2024-03-08T01:43:45;4.60;58.80
6824;DHT22;58633;49.470;11.004;2024-03-08T01:46:19;4.60;58.80
6824;DHT22;58633;49.470;11.004;2024-03-08T01:48:47;7.10;61.10
6824;DHT22;58633;49.470;11.004;2024-03-08T01:51:13;4.70;59.00
6824;DHT22;58633;49.470;11.004;2024-03-08T01:53:40;4.70;59.10
6824;DHT22;58633;49.470;11.004;2024-03-08T01:56:08;4.40;58.80
6824;DHT22;58633;49.470;11.004;2024-03-08T01:58:35;6.80;61.20
6824;DHT22;58633;49.470;11.004;2024-03-08T02:01:01;4.30;59.20
6824;DHT22;58633;49.470;11.004;2024-03-08T02:03:29;4.80;59.40
6824;DHT22;58633;49.470;11.004;2024-03-08T02:05:57;6.30;60.80
6824;DHT22;58633;49.470;11.004;2024-03-08T02:08:24;4.40;59.20
6824;DHT22;58633;49.470;11.004;2024-03-08T02:10:50;6.60;60.90
6824;DHT22;58633;49.470;11.004;2024-03-08T02:13:16;6.60;61.00
6824;DHT22;58633;49.470;11.004;2024-03-08T02:18:20;4.40;59.10
6824;DHT22;58633;49.470;11.004;2024-03-08T02:20:47;3.80;58.60
6824;DHT22;58633;49.470;11.004;2024-03-08T02:23:14;6.10;60.60
6824;DHT22;58633;49.470;11.004;2024-03-08T02:25:40;7.20;61.80
6824;DHT22;58633;49.470;11.004;2024-03-08T02:28:11;7.80;63.90
6824;DHT22;58633;49.470;11.004;2024-03-08T02:30:36;4.70;59.40
6824;DHT22;58633;49.470;11.004;2024-03-08T02:33:02;4.40;59.30
6824;DHT22;58633;49.470;11.004;2024-03-08T02:35:28;7.90;62.60
6824;DHT22;58633;49.470;11.004;2024-03-08T02:37:53;4.60;59.60
6824;DHT22;58633;49.470;11.004;2024-03-08T02:40:19;4.60;59.60
6824;DHT22;58633;49.470;11.004;2024-03-08T02:42:44;4.70;59.70
6824;DHT22;58633;49.470;11.004;2024-03-08T02:45:10;4.40;59.50
6824;DHT22;58633;49.470;11.004;2024-03-08T02:47:35;4.60;59.60
6824;DHT22;58633;49.470;11.004;2024-03-08T02:50:01;4.50;59.60
6824;DHT22;58633;49.470;11.004;2024-03-08T02:52:27;7.20;62.20
6824;DHT22;58633;49.470;11.004;2024-03-08T02:54:53;4.40;59.80
6824;DHT22;58633;49.470;11.004;2024-03-08T02:57:18;6.80;63.00
6824;DHT22;58633;49.470;11.004;2024-03-08T02:59:44;2.40;59.20
6824;DHT22;58633;49.470;11.004;2024-03-08T03:02:11;6.00;61.10
6824;DHT22;58633;49.470;11.004;2024-03-08T03:04:40;5.60;60.80
6824;DHT22;58633;49.470;11.004;2024-03-08T03:07:05;4.00;59.40
6824;DHT22;58633;49.470;11.004;2024-03-08T03:09:31;6.00;61.30
6824;DHT22;58633;49.470;11.004;2024-03-08T03:11:58;6.60;63.40
6824;DHT22;58633;49.470;11.004;2024-03-08T03:14:24;4.00;59.50
6824;DHT22;58633;49.470;11.004;2024-03-08T03:16:52;5.70;61.70
6824;DHT22;58633;49.470;11.004;2024-03-08T03:19:18;3.70;59.20
6824;DHT22;58633;49.470;11.004;2024-03-08T03:21:44;4.10;60.60
6824;DHT22;58633;49.470;11.004;2024-03-08T03:24:10;6.40;63.60
6824;DHT22;58633;49.470;11.004;2024-03-08T03:26:36;3.90;60.60
6824;DHT22;58633;49.470;11.004;2024-03-08T03:29:05;6.70;62.20
6824;DHT22;58633;49.470;11.004;2024-03-08T03:31:34;3.90;59.70
6824;DHT22;58633;49.470;11.004;2024-03-08T03:34:00;6.20;62.00
6824;DHT22;58633;49.470;11.004;2024-03-08T03:36:30;4.20;60.30
6824;DHT22;58633;49.470;11.004;2024-03-08T03:38:56;6.90;62.60
6824;DHT22;58633;49.470;11.004;2024-03-08T03:41:38;2.60;59.50
6824;DHT22;58633;49.470;11.004;2024-03-08T03:44:05;5.10;60.90
6824;DHT22;58633;49.470;11.004;2024-03-08T03:46:34;3.60;59.60
6824;DHT22;58633;49.470;11.004;2024-03-08T03:48:59;4.10;60.90
6824;DHT22;58633;49.470;11.004;2024-03-08T03:51:25;5.20;61.10
6824;DHT22;58633;49.470;11.004;2024-03-08T03:53:51;4.00;60.00
6824;DHT22;58633;49.470;11.004;2024-03-08T03:56:18;4.10;60.20
6824;DHT22;58633;49.470;11.004;2024-03-08T03:58:44;4.00;60.10
6824;DHT22;58633;49.470;11.004;2024-03-08T04:01:09;4.10;60.00
6824;DHT22;58633;49.470;11.004;2024-03-08T04:03:35;4.10;60.20
6824;DHT22;58633;49.470;11.004;2024-03-08T04:06:03;4.20;60.20
6824;DHT22;58633;49.470;11.004;2024-03-08T04:08:29;4.00;60.00
6824;DHT22;58633;49.470;11.004;2024-03-08T04:10:55;4.00;60.10
6824;DHT22;58633;49.470;11.004;2024-03-08T04:13:21;4.00;60.10
6824;DHT22;58633;49.470;11.004;2024-03-08T04:15:46;4.00;60.20
6824;DHT22;58633;49.470;11.004;2024-03-08T04:18:14;3.90;60.70
6824;DHT22;58633;49.470;11.004;2024-03-08T04:20:39;4.10;60.70
6824;DHT22;58633;49.470;11.004;2024-03-08T04:23:05;4.00;60.60
6824;DHT22;58633;49.470;11.004;2024-03-08T04:25:31;4.10;60.80
6824;DHT22;58633;49.470;11.004;2024-03-08T04:27:59;3.90;60.50
6824;DHT22;58633;49.470;11.004;2024-03-08T04:30:26;3.80;60.60
6824;DHT22;58633;49.470;11.004;2024-03-08T04:32:53;3.90;60.70
6824;DHT22;58633;49.470;11.004;2024-03-08T04:35:19;3.80;60.50
6824;DHT22;58633;49.470;11.004;2024-03-08T04:37:45;3.90;60.60
6824;DHT22;58633;49.470;11.004;2024-03-08T04:40:11;7.00;63.60
6824;DHT22;58633;49.470;11.004;2024-03-08T04:42:37;3.80;60.50
6824;DHT22;58633;49.470;11.004;2024-03-08T04:45:05;3.40;60.30
6824;DHT22;58633;49.470;11.004;2024-03-08T04:47:30;3.80;60.80
6824;DHT22;58633;49.470;11.004;2024-03-08T04:49:56;3.90;60.80
6824;DHT22;58633;49.470;11.004;2024-03-08T04:52:22;3.70;60.80
6824;DHT22;58633;49.470;11.004;2024-03-08T04:54:48;3.80;61.10
6824;DHT22;58633;49.470;11.004;2024-03-08T04:57:13;3.80;61.10
6824;DHT22;58633;49.470;11.004;2024-03-08T04:59:39;3.70;61.10
6824;DHT22;58633;49.470;11.004;2024-03-08T05:02:05;3.70;61.00
6824;DHT22;58633;49.470;11.004;2024-03-08T05:04:32;3.80;61.10
6824;DHT22;58633;49.470;11.004;2024-03-08T05:06:58;5.90;63.00
6824;DHT22;58633;49.470;11.004;2024-03-08T05:09:26;1.30;59.10
6824;DHT22;58633;49.470;11.004;2024-03-08T05:11:56;3.60;61.10
6824;DHT22;58633;49.470;11.004;2024-03-08T05:14:25;3.80;61.30
6824;DHT22;58633;49.470;11.004;2024-03-08T05:16:51;3.90;61.40
6824;DHT22;58633;49.470;11.004;2024-03-08T05:19:18;3.80;61.30
6824;DHT22;58633;49.470;11.004;2024-03-08T05:21:44;3.60;61.00
6824;DHT22;58633;49.470;11.004;2024-03-08T05:24:10;6.10;63.50
6824;DHT22;58633;49.470;11.004;2024-03-08T05:29:05;3.80;61.50
6824;DHT22;58633;49.470;11.004;2024-03-08T05:31:43;3.90;62.20
6824;DHT22;58633;49.470;11.004;2024-03-08T05:34:11;3.80;62.00
6824;DHT22;58633;49.470;11.004;2024-03-08T05:36:40;6.60;64.50
6824;DHT22;58633;49.470;11.004;2024-03-08T05:39:05;3.70;61.60
6824;DHT22;58633;49.470;11.004;2024-03-08T05:41:32;3.60;61.70
6824;DHT22;58633;49.470;11.004;2024-03-08T05:43:57;3.80;61.90
6824;DHT22;58633;49.470;11.004;2024-03-08T05:46:23;3.60;61.80
6824;DHT22;58633;49.470;11.004;2024-03-08T05:48:48;3.60;61.70
6824;DHT22;58633;49.470;11.004;2024-03-08T05:51:14;3.70;61.80
6824;DHT22;58633;49.470;11.004;2024-03-08T05:53:39;3.80;62.00
6824;DHT22;58633;49.470;11.004;2024-03-08T05:56:05;4.30;62.50
6824;DHT22;58633;49.470;11.004;2024-03-08T05:58:31;3.60;61.80
6824;DHT22;58633;49.470;11.004;2024-03-08T06:00:57;5.50;63.60
6824;DHT22;58633;49.470;11.004;2024-03-08T06:03:22;3.70;61.90
6824;DHT22;58633;49.470;11.004;2024-03-08T06:05:49;3.60;61.80
6824;DHT22;58633;49.470;11.004;2024-03-08T06:08:15;3.60;62.10
6824;DHT22;58633;49.470;11.004;2024-03-08T06:10:41;3.60;62.20
6824;DHT22;58633;49.470;11.004;2024-03-08T06:13:06;3.70;62.50
6824;DHT22;58633;49.470;11.004;2024-03-08T06:15:32;3.60;62.30
6824;DHT22;58633;49.470;11.004;2024-03-08T06:17:58;3.50;62.20
6824;DHT22;58633;49.470;11.004;2024-03-08T06:20:23;3.80;62.50
6824;DHT22;58633;49.470;11.004;2024-03-08T06:22:51;3.70;62.30
6824;DHT22;58633;49.470;11.004;2024-03-08T06:25:17;3.60;62.30
6824;DHT22;58633;49.470;11.004;2024-03-08T06:27:43;3.70;62.40
6824;DHT22;58633;49.470;11.004;2024-03-08T06:30:10;3.50;62.50
6824;DHT22;58633;49.470;11.004;2024-03-08T06:32:39;3.60;63.20
6824;DHT22;58633;49.470;11.004;2024-03-08T06:35:05;3.70;63.40
6824;DHT22;58633;49.470;11.004;2024-03-08T06:37:34;3.70;63.20
6824;DHT22;58633;49.470;11.004;2024-03-08T06:40:00;3.60;63.00
6824;DHT22;58633;49.470;11.004;2024-03-08T06:42:27;3.70;63.00
6824;DHT22;58633;49.470;11.004;2024-03-08T06:44:53;3.60;63.00
6824;DHT22;58633;49.470;11.004;2024-03-08T06:47:21;3.80;63.20
6824;DHT22;58633;49.470;11.004;2024-03-08T06:49:47;3.60;62.90
6824;DHT22;58633;49.470;11.004;2024-03-08T06:52:14;3.60;63.10
6824;DHT22;58633;49.470;11.004;2024-03-08T06:54:40;3.70;63.10
6824;DHT22;58633;49.470;11.004;2024-03-08T06:57:06;3.60;63.00
6824;DHT22;58633;49.470;11.004;2024-03-08T06:59:32;3.70;63.10
6824;DHT22;58633;49.470;11.004;2024-03-08T07:01:58;3.60;63.70
6824;DHT22;58633;49.470;11.004;2024-03-08T07:04:25;3.70;63.20
6824;DHT22;58633;49.470;11.004;2024-03-08T07:06:54;3.80;63.30
6824;DHT22;58633;49.470;11.004;2024-03-08T07:09:20;5.60;65.10
6824;DHT22;58633;49.470;11.004;2024-03-08T07:11:45;3.80;63.60
6824;DHT22;58633;49.470;11.004;2024-03-08T07:14:12;3.80;63.40
6824;DHT22;58633;49.470;11.004;2024-03-08T07:16:43;3.70;63.50
6824;DHT22;58633;49.470;11.004;2024-03-08T07:19:10;5.50;65.00
6824;DHT22;58633;49.470;11.004;2024-03-08T07:21:35;5.00;66.70
6824;DHT22;58633;49.470;11.004;2024-03-08T07:24:01;5.20;65.90
6824;DHT22;58633;49.470;11.004;2024-03-08T07:26:27;7.30;68.10
6824;DHT22;58633;49.470;11.004;2024-03-08T07:28:53;6.10;66.50
6824;DHT22;58633;49.470;11.004;2024-03-08T07:31:22;3.00;63.00
6824;DHT22;58633;49.470;11.004;2024-03-08T07:33:50;3.80;63.90
6824;DHT22;58633;49.470;11.004;2024-03-08T07:36:16;6.30;66.50
6824;DHT22;58633;49.470;11.004;2024-03-08T07:38:42;3.90;64.00
6824;DHT22;58633;49.470;11.004;2024-03-08T07:41:08;4.00;64.00
6824;DHT22;58633;49.470;11.004;2024-03-08T07:43:37;3.90;64.50
6824;DHT22;58633;49.470;11.004;2024-03-08T07:46:02;4.90;64.80
6824;DHT22;58633;49.470;11.004;2024-03-08T07:48:28;4.20;64.30
6824;DHT22;58633;49.470;11.004;2024-03-08T07:50:54;4.20;64.30
6824;DHT22;58633;49.470;11.004;2024-03-08T07:53:19;5.70;65.70
6824;DHT22;58633;49.470;11.004;2024-03-08T07:55:45;4.20;64.30
6824;DHT22;58633;49.470;11.004;2024-03-08T07:58:11;7.20;67.20
6824;DHT22;58633;49.470;11.004;2024-03-08T08:00:36;4.10;64.00
6824;DHT22;58633;49.470;11.004;2024-03-08T08:03:03;7.20;68.30
6824;DHT22;58633;49.470;11.004;2024-03-08T08:05:30;4.30;64.40
6824;DHT22;58633;49.470;11.004;2024-03-08T08:08:01;4.20;64.50
6824;DHT22;58633;49.470;11.004;2024-03-08T08:10:28;4.40;64.50
6824;DHT22;58633;49.470;11.004;2024-03-08T08:12:54;4.40;64.20
6824;DHT22;58633;49.470;11.004;2024-03-08T08:15:20;4.40;64.20
6824;DHT22;58633;49.470;11.004;2024-03-08T08:17:46;4.70;64.30
6824;DHT22;58633;49.470;11.004;2024-03-08T08:20:12;4.40;64.00
6824;DHT22;58633;49.470;11.004;2024-03-08T08:22:41;4.60;64.30
6824;DHT22;58633;49.470;11.004;2024-03-08T08:25:07;4.50;64.40
6824;DHT22;58633;49.470;11.004;2024-03-08T08:27:33;4.70;64.60
6824;DHT22;58633;49.470;11.004;2024-03-08T08:29:59;4.60;64.30
6824;DHT22;58633;49.470;11.004;2024-03-08T08:32:24;4.80;64.40
6824;DHT22;58633;49.470;11.004;2024-03-08T08:34:50;4.80;64.30
6824;DHT22;58633;49.470;11.004;2024-03-08T08:37:15;4.90;64.30
6824;DHT22;58633;49.470;11.004;2024-03-08T08:39:42;7.00;65.90
6824;DHT22;58633;49.470;11.004;2024-03-08T08:42:07;5.00;63.60
6824;DHT22;58633;49.470;11.004;2024-03-08T08:44:35;5.20;63.80
6824;DHT22;58633;49.470;11.004;2024-03-08T08:47:01;5.10;63.50
6824;DHT22;58633;49.470;11.004;2024-03-08T08:49:26;5.40;63.40
6824;DHT22;58633;49.470;11.004;2024-03-08T08:51:52;5.20;62.90
6824;DHT22;58633;49.470;11.004;2024-03-08T08:54:18;5.40;62.80
6824;DHT22;58633;49.470;11.004;2024-03-08T08:56:45;5.30;62.70
6824;DHT22;58633;49.470;11.004;2024-03-08T08:59:13;5.30;62.80
6824;DHT22;58633;49.470;11.004;2024-03-08T09:01:44;5.50;63.00
6824;DHT22;58633;49.470;11.004;2024-03-08T09:04:12;5.60;63.10
6824;DHT22;58633;49.470;11.004;2024-03-08T09:06:38;5.90;63.20
6824;DHT22;58633;49.470;11.004;2024-03-08T09:09:06;6.00;62.80
6824;DHT22;58633;49.470;11.004;2024-03-08T09:11:34;6.00;62.20
6824;DHT22;58633;49.470;11.004;2024-03-08T09:14:00;6.20;62.30
6824;DHT22;58633;49.470;11.004;2024-03-08T09:16:27;6.30;62.10
6824;DHT22;58633;49.470;11.004;2024-03-08T09:18:52;6.30;61.60
6824;DHT22;58633;49.470;11.004;2024-03-08T09:21:18;6.40;61.20
6824;DHT22;58633;49.470;11.004;2024-03-08T09:23:43;6.50;60.50
6824;DHT22;58633;49.470;11.004;2024-03-08T09:26:10;6.40;60.10
6824;DHT22;58633;49.470;11.004;2024-03-08T09:28:37;6.80;60.60
6824;DHT22;58633;49.470;11.004;2024-03-08T09:31:04;6.90;60.30
6824;DHT22;58633;49.470;11.004;2024-03-08T09:33:30;6.90;60.10
6824;DHT22;58633;49.470;11.004;2024-03-08T09:35:56;7.10;59.80
6824;DHT22;58633;49.470;11.004;2024-03-08T09:38:24;7.10;59.10
6824;DHT22;58633;49.470;11.004;2024-03-08T09:40:51;7.10;58.50
6824;DHT22;58633;49.470;11.004;2024-03-08T09:43:17;7.30;58.30
6824;DHT22;58633;49.470;11.004;2024-03-08T09:45:45;7.10;58.00
6824;DHT22;58633;49.470;11.004;2024-03-08T09:48:12;7.50;58.40
6824;DHT22;58633;49.470;11.004;2024-03-08T09:50:39;7.40;58.10
6824;DHT22;58633;49.470;11.004;2024-03-08T09:53:05;8.10;58.20
6824;DHT22;58633;49.470;11.004;2024-03-08T09:55:37;7.70;57.40
6824;DHT22;58633;49.470;11.004;2024-03-08T09:58:06;7.70;57.10
6824;DHT22;58633;49.470;11.004;2024-03-08T10:00:45;7.80;57.00
6824;DHT22;58633;49.470;11.004;2024-03-08T10:03:10;8.00;57.10
6824;DHT22;58633;49.470;11.004;2024-03-08T10:05:36;8.30;57.20
6824;DHT22;58633;49.470;11.004;2024-03-08T10:08:02;8.40;57.00
6824;DHT22;58633;49.470;11.004;2024-03-08T10:10:28;8.40;56.60
6824;DHT22;58633;49.470;11.004;2024-03-08T10:12:55;8.60;56.80
6824;DHT22;58633;49.470;11.004;2024-03-08T10:15:20;8.60;55.70
6824;DHT22;58633;49.470;11.004;2024-03-08T10:17:46;8.90;55.80
6824;DHT22;58633;49.470;11.004;2024-03-08T10:20:18;8.80;55.30
6824;DHT22;58633;49.470;11.004;2024-03-08T10:22:44;8.80;55.20
6824;DHT22;58633;49.470;11.004;2024-03-08T10:25:13;9.00;55.10
6824;DHT22;58633;49.470;11.004;2024-03-08T10:27:39;9.00;54.90
6824;DHT22;58633;49.470;11.004;2024-03-08T10:30:13;9.10;54.20
6824;DHT22;58633;49.470;11.004;2024-03-08T10:32:40;9.10;54.00
6824;DHT22;58633;49.470;11.004;2024-03-08T10:35:07;9.30;54.00
6824;DHT22;58633;49.470;11.004;2024-03-08T10:37:45;9.30;53.80
6824;DHT22;58633;49.470;11.004;2024-03-08T10:40:18;9.30;53.80
6824;DHT22;58633;49.470;11.004;2024-03-08T10:42:52;9.60;53.20
6824;DHT22;58633;49.470;11.004;2024-03-08T10:50:44;9.70;52.10
6824;DHT22;58633;49.470;11.004;2024-03-08T10:53:17;9.90;52.00
6824;DHT22;58633;49.470;11.004;2024-03-08T10:55:44;12.90;53.80
6824;DHT22;58633;49.470;11.004;2024-03-08T10:58:10;10.10;51.10
6824;DHT22;58633;49.470;11.004;2024-03-08T11:00:36;10.30;50.80
6824;DHT22;58633;49.470;11.004;2024-03-08T11:03:02;10.40;50.30
6824;DHT22;58633;49.470;11.004;2024-03-08T11:05:32;10.60;49.90
6824;DHT22;58633;49.470;11.004;2024-03-08T11:10:50;10.80;49.20
6824;DHT22;58633;49.470;11.004;2024-03-08T11:13:37;10.90;48.90
6824;DHT22;58633;49.470;11.004;2024-03-08T11:16:07;11.00;48.50
6824;DHT22;58633;49.470;11.004;2024-03-08T11:18:35;11.10;48.80
6824;DHT22;58633;49.470;11.004;2024-03-08T11:21:19;11.00;48.60
6824;DHT22;58633;49.470;11.004;2024-03-08T11:23:59;11.10;48.50
6824;DHT22;58633;49.470;11.004;2024-03-08T11:26:25;11.40;48.40
6824;DHT22;58633;49.470;11.004;2024-03-08T11:28:50;11.60;47.30
6824;DHT22;58633;49.470;11.004;2024-03-08T11:33:46;11.50;46.90
6824;DHT22;58633;49.470;11.004;2024-03-08T11:36:23;13.80;48.20
6824;DHT22;58633;49.470;11.004;2024-03-08T11:38:50;11.80;46.40
6824;DHT22;58633;49.470;11.004;2024-03-08T11:41:19;11.90;45.80
6824;DHT22;58633;49.470;11.004;2024-03-08T11:43:49;12.10;45.40
6824;DHT22;58633;49.470;11.004;2024-03-08T11:46:16;12.10;45.90
6824;DHT22;58633;49.470;11.004;2024-03-08T11:48:43;12.30;46.70
6824;DHT22;58633;49.470;11.004;2024-03-08T11:51:14;12.40;45.50
6824;DHT22;58633;49.470;11.004;2024-03-08T11:53:41;12.50;45.50
6824;DHT22;58633;49.470;11.004;2024-03-08T11:56:11;12.50;45.30
6824;DHT22;58633;49.470;11.004;2024-03-08T11:58:37;12.50;45.10
6824;DHT22;58633;49.470;11.004;2024-03-08T12:01:04;12.60;44.60
6824;DHT22;58633;49.470;11.004;2024-03-08T12:03:31;12.70;45.00
6824;DHT22;58633;49.470;11.004;2024-03-08T12:06:00;12.90;45.00
6824;DHT22;58633;49.470;11.004;2024-03-08T12:08:25;12.90;44.90
6824;DHT22;58633;49.470;11.004;2024-03-08T12:10:53;13.20;44.10
6824;DHT22;58633;49.470;11.004;2024-03-08T12:13:28;15.70;46.40
6824;DHT22;58633;49.470;11.004;2024-03-08T12:15:57;13.20;43.80
6824;DHT22;58633;49.470;11.004;2024-03-08T12:18:24;13.20;43.60
6824;DHT22;58633;49.470;11.004;2024-03-08T12:20:51;13.30;43.20
6824;DHT22;58633;49.470;11.004;2024-03-08T12:23:17;13.40;43.20
6824;DHT22;58633;49.470;11.004;2024-03-08T12:25:43;13.40;43.30
6824;DHT22;58633;49.470;11.004;2024-03-08T12:28:10;13.60;42.60
6824;DHT22;58633;49.470;11.004;2024-03-08T12:30:49;13.60;42.70
6824;DHT22;58633;49.470;11.004;2024-03-08T12:33:16;13.90;42.10
6824;DHT22;58633;49.470;11.004;2024-03-08T12:35:50;13.90;41.80
6824;DHT22;58633;49.470;11.004;2024-03-08T12:38:19;13.90;42.00
6824;DHT22;58633;49.470;11.004;2024-03-08T12:40:49;14.10;41.70
6824;DHT22;58633;49.470;11.004;2024-03-08T12:43:15;14.00;41.70
6824;DHT22;58633;49.470;11.004;2024-03-08T12:45:41;14.00;42.20
6824;DHT22;58633;49.470;11.004;2024-03-08T12:48:13;16.40;44.00
6824;DHT22;58633;49.470;11.004;2024-03-08T12:50:40;15.70;42.80
6824;DHT22;58633;49.470;11.004;2024-03-08T12:53:08;14.30;40.50
6824;DHT22;58633;49.470;11.004;2024-03-08T12:55:36;14.40;40.60
6824;DHT22;58633;49.470;11.004;2024-03-08T12:58:02;15.50;42.30
6824;DHT22;58633;49.470;11.004;2024-03-08T13:00:27;16.00;42.10
6824;DHT22;58633;49.470;11.004;2024-03-08T13:02:53;15.10;39.90
6824;DHT22;58633;49.470;11.004;2024-03-08T13:05:19;14.80;39.90
6824;DHT22;58633;49.470;11.004;2024-03-08T13:07:45;14.80;39.70
6824;DHT22;58633;49.470;11.004;2024-03-08T13:10:14;15.00;39.40
6824;DHT22;58633;49.470;11.004;2024-03-08T13:12:44;14.80;39.80
6824;DHT22;58633;49.470;11.004;2024-03-08T13:15:10;14.90;39.40
6824;DHT22;58633;49.470;11.004;2024-03-08T13:17:48;15.00;39.50
6824;DHT22;58633;49.470;11.004;2024-03-08T13:20:14;15.10;39.90
6824;DHT22;58633;49.470;11.004;2024-03-08T13:22:45;15.20;40.10
6824;DHT22;58633;49.470;11.004;2024-03-08T13:25:12;15.30;39.80
6824;DHT22;58633;49.470;11.004;2024-03-08T13:27:40;15.40;38.90
6824;DHT22;58633;49.470;11.004;2024-03-08T13:30:07;15.50;38.80
6824;DHT22;58633;49.470;11.004;2024-03-08T13:32:32;15.60;39.10
6824;DHT22;58633;49.470;11.004;2024-03-08T13:34:58;16.90;39.70
6824;DHT22;58633;49.470;11.004;2024-03-08T13:37:23;15.70;38.30
6824;DHT22;58633;49.470;11.004;2024-03-08T13:39:49;15.90;38.40
6824;DHT22;58633;49.470;11.004;2024-03-08T13:42:15;16.00;37.80
6824;DHT22;58633;49.470;11.004;2024-03-08T13:44:48;16.00;37.50
6824;DHT22;58633;49.470;11.004;2024-03-08T13:47:18;16.10;37.80
6824;DHT22;58633;49.470;11.004;2024-03-08T13:49:44;16.70;38.40
6824;DHT22;58633;49.470;11.004;2024-03-08T13:52:10;18.10;39.60
6824;DHT22;58633;49.470;11.004;2024-03-08T13:54:37;16.40;38.40
6824;DHT22;58633;49.470;11.004;2024-03-08T13:57:04;16.50;38.80
6824;DHT22;58633;49.470;11.004;2024-03-08T13:59:30;16.70;38.80
6824;DHT22;58633;49.470;11.004;2024-03-08T14:01:58;16.70;38.70
6824;DHT22;58633;49.470;11.004;2024-03-08T14:04:25;16.80;38.00
6824;DHT22;58633;49.470;11.004;2024-03-08T14:06:52;17.40;38.80
6824;DHT22;58633;49.470;11.004;2024-03-08T14:09:21;18.10;39.70
6824;DHT22;58633;49.470;11.004;2024-03-08T14:11:50;17.20;39.00
6824;DHT22;58633;49.470;11.004;2024-03-08T14:14:19;15.90;38.40
6824;DHT22;58633;49.470;11.004;2024-03-08T14:16:47;18.60;40.90
6824;DHT22;58633;49.470;11.004;2024-03-08T14:19:13;19.40;41.10
6824;DHT22;58633;49.470;11.004;2024-03-08T14:21:40;17.20;39.40
6824;DHT22;58633;49.470;11.004;2024-03-08T14:24:16;19.00;40.80
6824;DHT22;58633;49.470;11.004;2024-03-08T14:26:44;16.80;38.50
6824;DHT22;58633;49.470;11.004;2024-03-08T14:29:10;20.30;42.70
6824;DHT22;58633;49.470;11.004;2024-03-08T14:31:37;17.50;39.00
6824;DHT22;58633;49.470;11.004;2024-03-08T14:34:02;19.80;41.10
6824;DHT22;58633;49.470;11.004;2024-03-08T14:36:29;21.70;42.20
6824;DHT22;58633;49.470;11.004;2024-03-08T14:38:55;19.60;40.00
6824;DHT22;58633;49.470;11.004;2024-03-08T14:41:20;17.90;39.50
6824;DHT22;58633;49.470;11.004;2024-03-08T14:43:47;20.20;40.30
6824;DHT22;58633;49.470;11.004;2024-03-08T14:46:16;18.90;40.20
6824;DHT22;58633;49.470;11.004;2024-03-08T14:48:52;18.10;38.10
6824;DHT22;58633;49.470;11.004;2024-03-08T14:51:21;18.30;37.90
6824;DHT22;58633;49.470;11.004;2024-03-08T14:53:48;18.30;38.50
6824;DHT22;58633;49.470;11.004;2024-03-08T14:56:15;20.50;40.00
6824;DHT22;58633;49.470;11.004;2024-03-08T14:58:42;18.70;38.90
6824;DHT22;58633;49.470;11.004;2024-03-08T15:01:10;20.70;40.10
6824;DHT22;58633;49.470;11.004;2024-03-08T15:03:36;19.30;38.20
6824;DHT22;58633;49.470;11.004;2024-03-08T15:06:04;20.20;38.30
6824;DHT22;58633;49.470;11.004;2024-03-08T15:08:37;18.30;37.00
6824;DHT22;58633;49.470;11.004;2024-03-08T15:11:03;18.40;38.10
6824;DHT22;58633;49.470;11.004;2024-03-08T15:13:31;18.50;38.00
6824;DHT22;58633;49.470;11.004;2024-03-08T15:16:13;21.20;40.30
6824;DHT22;58633;49.470;11.004;2024-03-08T15:18:46;18.60;38.50
6824;DHT22;58633;49.470;11.004;2024-03-08T15:21:17;19.90;39.80
6824;DHT22;58633;49.470;11.004;2024-03-08T15:23:46;20.00;40.00
6824;DHT22;58633;49.470;11.004;2024-03-08T15:26:16;18.60;38.00
6824;DHT22;58633;49.470;11.004;2024-03-08T15:28:42;19.00;38.60
6824;DHT22;58633;49.470;11.004;2024-03-08T15:31:09;18.70;39.00
6824;DHT22;58633;49.470;11.004;2024-03-08T15:33:36;21.00;40.60
6824;DHT22;58633;49.470;11.004;2024-03-08T15:36:17;19.70;39.80
6824;DHT22;58633;49.470;11.004;2024-03-08T15:38:43;20.30;39.60
6824;DHT22;58633;49.470;11.004;2024-03-08T15:41:18;18.50;38.10
6824;DHT22;58633;49.470;11.004;2024-03-08T15:43:46;18.60;38.30
6824;DHT22;58633;49.470;11.004;2024-03-08T15:46:11;19.10;38.60
6824;DHT22;58633;49.470;11.004;2024-03-08T15:48:38;18.80;38.20
6824;DHT22;58633;49.470;11.004;2024-03-08T15:51:07;18.40;38.10
6824;DHT22;58633;49.470;11.004;2024-03-08T15:53:35;18.40;38.50
6824;DHT22;58633;49.470;11.004;2024-03-08T15:56:04;18.80;38.70
6824;DHT22;58633;49.470;11.004;2024-03-08T15:58:34;20.20;40.70